sensor_id;sensor_type;location;lat;lon;timestamp;P1;durP1;ratioP1;P2;durP2;ratioP2
29248;SDS011;16273;51.234;7.616;2023-03-03T00:00:04;71.00;;;33.78;;
29248;SDS011;16273;51.234;7.616;2023-03-03T00:02:50;117.13;;;38.53;;
29248;SDS011;16273;51.234;7.616;2023-03-03T00:05:37;86.55;;;35.65;;
29248;SDS011;16273;51.234;7.616;2023-03-03T00:08:23;129.68;;;36.55;;
29248;SDS011;16273;51.234;7.616;2023-03-03T00:11:09;138.15;;;37.50;;
29248;SDS011;16273;51.234;7.616;2023-03-03T00:13:55;105.80;;;36.47;;
29248;SDS011;16273;51.234;7.616;2023-03-03T00:16:41;80.05;;;34.40;;
29248;SDS011;16273;51.234;7.616;2023-03-03T00:19:28;73.47;;;34.38;;
29248;SDS011;16273;51.234;7.616;2023-03-03T00:25:25;162.02;;;38.45;;
29248;SDS011;16273;51.234;7.616;2023-03-03T00:28:15;118.88;;;36.67;;
29248;SDS011;16273;51.234;7.616;2023-03-03T00:31:05;142.57;;;38.38;;
29248;SDS011;16273;51.234;7.616;2023-03-03T00:33:56;83.97;;;33.90;;
29248;SDS011;16273;51.234;7.616;2023-03-03T00:36:51;148.48;;;40.20;;
29248;SDS011;16273;51.234;7.616;2023-03-03T00:39:37;112.10;;;38.03;;
29248;SDS011;16273;51.234;7.616;2023-03-03T00:42:25;95.25;;;35.38;;
29248;SDS011;16273;51.234;7.616;2023-03-03T00:45:17;88.47;;;34.70;;
29248;SDS011;16273;51.234;7.616;2023-03-03T00:48:10;90.00;;;36.22;;
29248;SDS011;16273;51.234;7.616;2023-03-03T00:51:01;96.70;;;35.85;;
29248;SDS011;16273;51.234;7.616;2023-03-03T00:53:53;272.75;;;43.53;;
29248;SDS011;16273;51.234;7.616;2023-03-03T00:56:38;147.18;;;40.40;;
29248;SDS011;16273;51.234;7.616;2023-03-03T00:59:24;84.90;;;37.83;;
29248;SDS011;16273;51.234;7.616;2023-03-03T01:02:10;122.55;;;38.22;;
29248;SDS011;16273;51.234;7.616;2023-03-03T01:04:55;120.93;;;37.35;;
29248;SDS011;16273;51.234;7.616;2023-03-03T01:07:41;93.43;;;38.22;;
29248;SDS011;16273;51.234;7.616;2023-03-03T01:10:30;183.20;;;42.17;;
29248;SDS011;16273;51.234;7.616;2023-03-03T01:13:17;212.10;;;44.00;;
29248;SDS011;16273;51.234;7.616;2023-03-03T01:16:03;133.73;;;36.47;;
29248;SDS011;16273;51.234;7.616;2023-03-03T01:18:48;93.97;;;38.40;;
29248;SDS011;16273;51.234;7.616;2023-03-03T01:21:34;205.63;;;43.63;;
29248;SDS011;16273;51.234;7.616;2023-03-03T01:24:20;172.35;;;40.58;;
29248;SDS011;16273;51.234;7.616;2023-03-03T01:27:05;122.00;;;36.47;;
29248;SDS011;16273;51.234;7.616;2023-03-03T01:29:51;175.45;;;36.08;;
29248;SDS011;16273;51.234;7.616;2023-03-03T01:32:37;102.53;;;36.97;;
29248;SDS011;16273;51.234;7.616;2023-03-03T01:35:22;176.13;;;39.38;;
29248;SDS011;16273;51.234;7.616;2023-03-03T01:38:08;99.22;;;35.80;;
29248;SDS011;16273;51.234;7.616;2023-03-03T01:40:57;166.55;;;39.53;;
29248;SDS011;16273;51.234;7.616;2023-03-03T01:43:44;109.95;;;36.58;;
29248;SDS011;16273;51.234;7.616;2023-03-03T01:49:21;165.68;;;40.13;;
29248;SDS011;16273;51.234;7.616;2023-03-03T01:52:49;92.20;;;35.40;;
29248;SDS011;16273;51.234;7.616;2023-03-03T01:55:19;215.05;;;43.85;;
29248;SDS011;16273;51.234;7.616;2023-03-03T01:58:07;242.20;;;46.40;;
29248;SDS011;16273;51.234;7.616;2023-03-03T02:00:56;225.93;;;42.72;;
29248;SDS011;16273;51.234;7.616;2023-03-03T02:03:44;269.02;;;47.15;;
29248;SDS011;16273;51.234;7.616;2023-03-03T02:06:32;95.78;;;36.33;;
29248;SDS011;16273;51.234;7.616;2023-03-03T02:12:08;140.63;;;39.20;;
29248;SDS011;16273;51.234;7.616;2023-03-03T02:14:55;89.75;;;36.38;;
29248;SDS011;16273;51.234;7.616;2023-03-03T02:17:41;163.90;;;38.67;;
29248;SDS011;16273;51.234;7.616;2023-03-03T02:23:23;109.32;;;36.08;;
29248;SDS011;16273;51.234;7.616;2023-03-03T02:26:43;97.53;;;32.83;;
29248;SDS011;16273;51.234;7.616;2023-03-03T02:29:22;138.20;;;35.80;;
29248;SDS011;16273;51.234;7.616;2023-03-03T02:32:07;94.68;;;34.05;;
29248;SDS011;16273;51.234;7.616;2023-03-03T02:34:53;110.30;;;33.25;;
29248;SDS011;16273;51.234;7.616;2023-03-03T02:37:39;120.47;;;34.58;;
29248;SDS011;16273;51.234;7.616;2023-03-03T02:40:25;315.85;;;43.60;;
29248;SDS011;16273;51.234;7.616;2023-03-03T02:43:12;159.40;;;33.75;;
29248;SDS011;16273;51.234;7.616;2023-03-03T02:46:00;168.23;;;36.17;;
29248;SDS011;16273;51.234;7.616;2023-03-03T02:48:46;132.38;;;34.58;;
29248;SDS011;16273;51.234;7.616;2023-03-03T02:51:31;85.82;;;33.92;;
29248;SDS011;16273;51.234;7.616;2023-03-03T02:54:17;135.00;;;35.42;;
29248;SDS011;16273;51.234;7.616;2023-03-03T02:57:03;105.80;;;33.47;;
29248;SDS011;16273;51.234;7.616;2023-03-03T02:59:49;108.95;;;35.17;;
29248;SDS011;16273;51.234;7.616;2023-03-03T03:02:34;98.05;;;36.88;;
29248;SDS011;16273;51.234;7.616;2023-03-03T03:05:20;178.10;;;41.00;;
29248;SDS011;16273;51.234;7.616;2023-03-03T03:08:06;191.85;;;36.63;;
29248;SDS011;16273;51.234;7.616;2023-03-03T03:10:51;93.50;;;33.80;;
29248;SDS011;16273;51.234;7.616;2023-03-03T03:13:37;73.25;;;30.92;;
29248;SDS011;16273;51.234;7.616;2023-03-03T03:16:22;78.55;;;31.88;;
29248;SDS011;16273;51.234;7.616;2023-03-03T03:19:08;73.38;;;28.85;;
29248;SDS011;16273;51.234;7.616;2023-03-03T03:21:53;60.22;;;27.65;;
29248;SDS011;16273;51.234;7.616;2023-03-03T03:24:39;117.63;;;30.05;;
29248;SDS011;16273;51.234;7.616;2023-03-03T03:27:25;62.15;;;29.35;;
29248;SDS011;16273;51.234;7.616;2023-03-03T03:30:10;81.75;;;29.35;;
29248;SDS011;16273;51.234;7.616;2023-03-03T03:32:56;69.50;;;28.90;;
29248;SDS011;16273;51.234;7.616;2023-03-03T03:35:42;115.93;;;29.45;;
29248;SDS011;16273;51.234;7.616;2023-03-03T03:38:29;72.60;;;26.55;;
29248;SDS011;16273;51.234;7.616;2023-03-03T03:41:15;88.68;;;30.17;;
29248;SDS011;16273;51.234;7.616;2023-03-03T03:44:01;124.97;;;34.20;;
29248;SDS011;16273;51.234;7.616;2023-03-03T03:46:47;178.70;;;38.17;;
29248;SDS011;16273;51.234;7.616;2023-03-03T03:49:32;124.07;;;29.38;;
29248;SDS011;16273;51.234;7.616;2023-03-03T03:52:18;82.25;;;29.27;;
29248;SDS011;16273;51.234;7.616;2023-03-03T03:55:03;109.43;;;28.63;;
29248;SDS011;16273;51.234;7.616;2023-03-03T03:57:49;82.57;;;26.92;;
29248;SDS011;16273;51.234;7.616;2023-03-03T04:00:35;131.55;;;28.65;;
29248;SDS011;16273;51.234;7.616;2023-03-03T04:03:20;134.43;;;29.00;;
29248;SDS011;16273;51.234;7.616;2023-03-03T04:06:06;151.88;;;30.33;;
29248;SDS011;16273;51.234;7.616;2023-03-03T04:08:52;140.30;;;30.92;;
29248;SDS011;16273;51.234;7.616;2023-03-03T04:11:37;185.63;;;33.88;;
29248;SDS011;16273;51.234;7.616;2023-03-03T04:14:23;165.77;;;34.20;;
29248;SDS011;16273;51.234;7.616;2023-03-03T04:17:15;130.57;;;31.80;;
29248;SDS011;16273;51.234;7.616;2023-03-03T04:20:00;121.97;;;27.65;;
29248;SDS011;16273;51.234;7.616;2023-03-03T04:22:47;62.22;;;26.17;;
29248;SDS011;16273;51.234;7.616;2023-03-03T04:25:33;123.38;;;29.63;;
29248;SDS011;16273;51.234;7.616;2023-03-03T04:28:18;234.70;;;36.45;;
29248;SDS011;16273;51.234;7.616;2023-03-03T04:31:04;104.35;;;29.30;;
29248;SDS011;16273;51.234;7.616;2023-03-03T04:33:50;106.05;;;28.40;;
29248;SDS011;16273;51.234;7.616;2023-03-03T04:36:35;85.85;;;24.08;;
29248;SDS011;16273;51.234;7.616;2023-03-03T04:39:21;50.92;;;23.75;;
29248;SDS011;16273;51.234;7.616;2023-03-03T04:42:07;289.48;;;41.75;;
29248;SDS011;16273;51.234;7.616;2023-03-03T04:44:52;91.18;;;25.13;;
29248;SDS011;16273;51.234;7.616;2023-03-03T04:47:38;62.53;;;23.33;;
29248;SDS011;16273;51.234;7.616;2023-03-03T04:50:23;67.35;;;22.23;;
29248;SDS011;16273;51.234;7.616;2023-03-03T04:53:09;109.05;;;26.52;;
29248;SDS011;16273;51.234;7.616;2023-03-03T04:55:55;208.18;;;32.35;;
29248;SDS011;16273;51.234;7.616;2023-03-03T04:58:40;67.22;;;22.20;;
29248;SDS011;16273;51.234;7.616;2023-03-03T05:01:26;64.20;;;21.30;;
29248;SDS011;16273;51.234;7.616;2023-03-03T05:04:11;81.40;;;23.80;;
29248;SDS011;16273;51.234;7.616;2023-03-03T05:06:57;53.58;;;22.15;;
29248;SDS011;16273;51.234;7.616;2023-03-03T05:09:43;99.50;;;25.48;;
29248;SDS011;16273;51.234;7.616;2023-03-03T05:12:28;99.15;;;24.58;;
29248;SDS011;16273;51.234;7.616;2023-03-03T05:15:14;57.05;;;23.38;;
29248;SDS011;16273;51.234;7.616;2023-03-03T05:17:59;165.95;;;29.10;;
29248;SDS011;16273;51.234;7.616;2023-03-03T05:20:45;206.32;;;31.88;;
29248;SDS011;16273;51.234;7.616;2023-03-03T05:23:30;105.65;;;26.40;;
29248;SDS011;16273;51.234;7.616;2023-03-03T05:26:16;120.85;;;28.13;;
29248;SDS011;16273;51.234;7.616;2023-03-03T05:29:02;140.00;;;25.88;;
29248;SDS011;16273;51.234;7.616;2023-03-03T05:31:47;77.38;;;22.88;;
29248;SDS011;16273;51.234;7.616;2023-03-03T05:34:34;69.90;;;21.58;;
29248;SDS011;16273;51.234;7.616;2023-03-03T05:37:19;74.57;;;22.98;;
29248;SDS011;16273;51.234;7.616;2023-03-03T05:40:05;107.05;;;24.75;;
29248;SDS011;16273;51.234;7.616;2023-03-03T05:42:51;76.53;;;22.75;;
29248;SDS011;16273;51.234;7.616;2023-03-03T05:45:36;166.52;;;25.30;;
29248;SDS011;16273;51.234;7.616;2023-03-03T05:48:22;116.85;;;24.42;;
29248;SDS011;16273;51.234;7.616;2023-03-03T05:51:08;78.28;;;22.98;;
29248;SDS011;16273;51.234;7.616;2023-03-03T05:53:53;117.22;;;26.48;;
29248;SDS011;16273;51.234;7.616;2023-03-03T05:56:39;75.97;;;26.35;;
29248;SDS011;16273;51.234;7.616;2023-03-03T05:59:24;82.25;;;23.65;;
29248;SDS011;16273;51.234;7.616;2023-03-03T06:02:10;152.52;;;28.00;;
29248;SDS011;16273;51.234;7.616;2023-03-03T06:04:56;68.55;;;24.30;;
29248;SDS011;16273;51.234;7.616;2023-03-03T06:07:41;64.18;;;23.90;;
29248;SDS011;16273;51.234;7.616;2023-03-03T06:10:27;125.38;;;26.90;;
29248;SDS011;16273;51.234;7.616;2023-03-03T06:13:12;79.90;;;24.48;;
29248;SDS011;16273;51.234;7.616;2023-03-03T06:15:58;83.20;;;23.48;;
29248;SDS011;16273;51.234;7.616;2023-03-03T06:18:44;62.15;;;23.48;;
29248;SDS011;16273;51.234;7.616;2023-03-03T06:21:29;82.82;;;23.15;;
29248;SDS011;16273;51.234;7.616;2023-03-03T06:24:15;82.88;;;23.20;;
29248;SDS011;16273;51.234;7.616;2023-03-03T06:27:00;160.88;;;26.60;;
29248;SDS011;16273;51.234;7.616;2023-03-03T06:29:46;102.90;;;24.10;;
29248;SDS011;16273;51.234;7.616;2023-03-03T06:32:32;229.63;;;30.58;;
29248;SDS011;16273;51.234;7.616;2023-03-03T06:35:17;152.73;;;27.77;;
29248;SDS011;16273;51.234;7.616;2023-03-03T06:38:03;140.38;;;25.13;;
29248;SDS011;16273;51.234;7.616;2023-03-03T06:40:48;94.40;;;23.75;;
29248;SDS011;16273;51.234;7.616;2023-03-03T06:43:34;87.32;;;26.98;;
29248;SDS011;16273;51.234;7.616;2023-03-03T06:46:20;54.13;;;21.73;;
29248;SDS011;16273;51.234;7.616;2023-03-03T06:49:06;83.57;;;23.88;;
29248;SDS011;16273;51.234;7.616;2023-03-03T06:51:51;63.40;;;22.50;;
29248;SDS011;16273;51.234;7.616;2023-03-03T06:54:37;46.97;;;20.00;;
29248;SDS011;16273;51.234;7.616;2023-03-03T07:03:20;70.80;;;23.90;;
29248;SDS011;16273;51.234;7.616;2023-03-03T07:06:19;62.28;;;23.65;;
29248;SDS011;16273;51.234;7.616;2023-03-03T07:09:14;69.78;;;27.55;;
29248;SDS011;16273;51.234;7.616;2023-03-03T07:12:09;75.10;;;24.13;;
29248;SDS011;16273;51.234;7.616;2023-03-03T07:15:01;60.42;;;23.33;;
29248;SDS011;16273;51.234;7.616;2023-03-03T07:17:56;61.22;;;23.88;;
29248;SDS011;16273;51.234;7.616;2023-03-03T07:20:47;71.32;;;25.63;;
29248;SDS011;16273;51.234;7.616;2023-03-03T07:23:38;95.47;;;27.58;;
29248;SDS011;16273;51.234;7.616;2023-03-03T07:26:30;63.90;;;22.50;;
29248;SDS011;16273;51.234;7.616;2023-03-03T07:29:27;85.85;;;22.65;;
29248;SDS011;16273;51.234;7.616;2023-03-03T07:32:24;123.28;;;24.13;;
29248;SDS011;16273;51.234;7.616;2023-03-03T07:35:28;84.10;;;23.02;;
29248;SDS011;16273;51.234;7.616;2023-03-03T07:41:01;53.63;;;22.23;;
29248;SDS011;16273;51.234;7.616;2023-03-03T07:46:41;53.70;;;21.58;;
29248;SDS011;16273;51.234;7.616;2023-03-03T07:49:35;56.58;;;22.55;;
29248;SDS011;16273;51.234;7.616;2023-03-03T07:52:25;48.95;;;22.15;;
29248;SDS011;16273;51.234;7.616;2023-03-03T07:55:22;53.08;;;21.17;;
29248;SDS011;16273;51.234;7.616;2023-03-03T08:04:01;39.25;;;20.50;;
29248;SDS011;16273;51.234;7.616;2023-03-03T08:09:38;46.67;;;19.58;;
29248;SDS011;16273;51.234;7.616;2023-03-03T08:12:33;45.60;;;19.80;;
29248;SDS011;16273;51.234;7.616;2023-03-03T08:15:22;48.75;;;18.10;;
29248;SDS011;16273;51.234;7.616;2023-03-03T08:18:14;44.38;;;17.70;;
29248;SDS011;16273;51.234;7.616;2023-03-03T08:21:02;51.53;;;19.33;;
29248;SDS011;16273;51.234;7.616;2023-03-03T08:23:49;44.60;;;18.70;;
29248;SDS011;16273;51.234;7.616;2023-03-03T08:26:36;38.17;;;16.77;;
29248;SDS011;16273;51.234;7.616;2023-03-03T08:29:22;41.75;;;17.23;;
29248;SDS011;16273;51.234;7.616;2023-03-03T08:32:07;41.33;;;17.45;;
29248;SDS011;16273;51.234;7.616;2023-03-03T08:34:53;40.55;;;16.65;;
29248;SDS011;16273;51.234;7.616;2023-03-03T08:37:38;58.28;;;24.42;;
29248;SDS011;16273;51.234;7.616;2023-03-03T08:40:24;47.25;;;18.25;;
29248;SDS011;16273;51.234;7.616;2023-03-03T08:43:10;37.83;;;17.67;;
29248;SDS011;16273;51.234;7.616;2023-03-03T08:45:58;49.63;;;17.42;;
29248;SDS011;16273;51.234;7.616;2023-03-03T09:00:07;29.35;;;14.52;;
29248;SDS011;16273;51.234;7.616;2023-03-03T09:02:53;37.80;;;17.08;;
29248;SDS011;16273;51.234;7.616;2023-03-03T09:05:42;41.90;;;18.70;;
29248;SDS011;16273;51.234;7.616;2023-03-03T09:08:29;41.25;;;17.60;;
29248;SDS011;16273;51.234;7.616;2023-03-03T09:11:18;38.35;;;16.17;;
29248;SDS011;16273;51.234;7.616;2023-03-03T09:14:10;39.05;;;17.00;;
29248;SDS011;16273;51.234;7.616;2023-03-03T09:16:56;38.33;;;16.88;;
29248;SDS011;16273;51.234;7.616;2023-03-03T09:19:50;43.92;;;16.85;;
29248;SDS011;16273;51.234;7.616;2023-03-03T09:22:36;35.97;;;15.52;;
29248;SDS011;16273;51.234;7.616;2023-03-03T09:25:34;37.75;;;16.55;;
29248;SDS011;16273;51.234;7.616;2023-03-03T09:31:42;36.45;;;16.85;;
29248;SDS011;16273;51.234;7.616;2023-03-03T09:37:34;37.03;;;16.60;;
29248;SDS011;16273;51.234;7.616;2023-03-03T09:43:22;41.35;;;17.15;;
29248;SDS011;16273;51.234;7.616;2023-03-03T09:57:50;35.72;;;15.32;;
29248;SDS011;16273;51.234;7.616;2023-03-03T10:06:26;41.03;;;18.58;;
29248;SDS011;16273;51.234;7.616;2023-03-03T10:29:21;33.50;;;15.70;;
29248;SDS011;16273;51.234;7.616;2023-03-03T10:35:00;35.40;;;16.73;;
29248;SDS011;16273;51.234;7.616;2023-03-03T10:46:53;38.50;;;16.73;;
29248;SDS011;16273;51.234;7.616;2023-03-03T10:52:32;39.17;;;16.90;;
29248;SDS011;16273;51.234;7.616;2023-03-03T10:58:23;35.03;;;15.60;;
29248;SDS011;16273;51.234;7.616;2023-03-03T11:01:12;30.80;;;15.02;;
29248;SDS011;16273;51.234;7.616;2023-03-03T11:12:48;28.13;;;14.32;;
29248;SDS011;16273;51.234;7.616;2023-03-03T11:18:43;27.77;;;15.32;;
29248;SDS011;16273;51.234;7.616;2023-03-03T11:21:52;28.75;;;13.52;;
29248;SDS011;16273;51.234;7.616;2023-03-03T11:39:56;27.63;;;13.60;;
29248;SDS011;16273;51.234;7.616;2023-03-03T11:45:38;27.48;;;12.93;;
29248;SDS011;16273;51.234;7.616;2023-03-03T12:03:29;26.25;;;13.13;;
29248;SDS011;16273;51.234;7.616;2023-03-03T12:14:48;24.92;;;10.82;;
29248;SDS011;16273;51.234;7.616;2023-03-03T12:17:46;23.17;;;12.90;;
29248;SDS011;16273;51.234;7.616;2023-03-03T12:26:15;25.40;;;11.15;;
29248;SDS011;16273;51.234;7.616;2023-03-03T12:29:09;27.25;;;12.63;;
29248;SDS011;16273;51.234;7.616;2023-03-03T12:32:01;22.08;;;12.25;;
29248;SDS011;16273;51.234;7.616;2023-03-03T12:40:34;21.90;;;11.20;;
29248;SDS011;16273;51.234;7.616;2023-03-03T12:49:00;26.17;;;13.20;;
29248;SDS011;16273;51.234;7.616;2023-03-03T12:52:08;29.92;;;14.05;;
29248;SDS011;16273;51.234;7.616;2023-03-03T13:04:12;23.88;;;11.73;;
29248;SDS011;16273;51.234;7.616;2023-03-03T13:07:18;25.13;;;13.35;;
29248;SDS011;16273;51.234;7.616;2023-03-03T13:17:02;23.67;;;11.77;;
29248;SDS011;16273;51.234;7.616;2023-03-03T13:22:43;22.70;;;12.20;;
29248;SDS011;16273;51.234;7.616;2023-03-03T13:31:21;21.70;;;11.43;;
29248;SDS011;16273;51.234;7.616;2023-03-03T13:34:19;23.00;;;12.15;;
29248;SDS011;16273;51.234;7.616;2023-03-03T13:43:03;22.38;;;12.45;;
29248;SDS011;16273;51.234;7.616;2023-03-03T13:48:43;21.52;;;11.50;;
29248;SDS011;16273;51.234;7.616;2023-03-03T13:51:47;24.40;;;12.20;;
29248;SDS011;16273;51.234;7.616;2023-03-03T14:06:18;30.38;;;13.15;;
29248;SDS011;16273;51.234;7.616;2023-03-03T14:23:01;28.45;;;13.82;;
29248;SDS011;16273;51.234;7.616;2023-03-03T14:28:43;31.48;;;14.43;;
29248;SDS011;16273;51.234;7.616;2023-03-03T14:31:37;33.50;;;15.85;;
29248;SDS011;16273;51.234;7.616;2023-03-03T14:40:29;32.92;;;13.45;;
29248;SDS011;16273;51.234;7.616;2023-03-03T14:43:25;36.53;;;14.13;;
29248;SDS011;16273;51.234;7.616;2023-03-03T14:46:21;30.38;;;13.13;;
29248;SDS011;16273;51.234;7.616;2023-03-03T14:49:29;27.65;;;13.27;;
29248;SDS011;16273;51.234;7.616;2023-03-03T14:55:01;35.15;;;14.40;;
29248;SDS011;16273;51.234;7.616;2023-03-03T14:57:49;29.73;;;14.38;;
29248;SDS011;16273;51.234;7.616;2023-03-03T15:00:35;27.52;;;12.98;;
29248;SDS011;16273;51.234;7.616;2023-03-03T15:03:22;29.15;;;12.95;;
29248;SDS011;16273;51.234;7.616;2023-03-03T15:06:11;26.52;;;12.93;;
29248;SDS011;16273;51.234;7.616;2023-03-03T15:12:22;32.33;;;13.25;;
29248;SDS011;16273;51.234;7.616;2023-03-03T15:15:18;25.35;;;12.65;;
29248;SDS011;16273;51.234;7.616;2023-03-03T15:18:08;32.50;;;12.85;;
29248;SDS011;16273;51.234;7.616;2023-03-03T15:32:37;28.05;;;12.25;;
29248;SDS011;16273;51.234;7.616;2023-03-03T15:41:12;29.13;;;12.10;;
29248;SDS011;16273;51.234;7.616;2023-03-03T16:03:49;29.63;;;12.73;;
29248;SDS011;16273;51.234;7.616;2023-03-03T16:18:40;30.13;;;13.35;;
29248;SDS011;16273;51.234;7.616;2023-03-03T16:36:01;37.63;;;14.27;;
29248;SDS011;16273;51.234;7.616;2023-03-03T16:56:04;37.05;;;14.32;;
29248;SDS011;16273;51.234;7.616;2023-03-03T17:02:02;38.00;;;15.55;;
29248;SDS011;16273;51.234;7.616;2023-03-03T17:04:51;37.85;;;15.07;;
29248;SDS011;16273;51.234;7.616;2023-03-03T17:07:47;40.55;;;14.95;;
29248;SDS011;16273;51.234;7.616;2023-03-03T17:16:13;38.45;;;15.15;;
29248;SDS011;16273;51.234;7.616;2023-03-03T17:25:11;39.00;;;15.45;;
29248;SDS011;16273;51.234;7.616;2023-03-03T17:31:04;35.25;;;14.73;;
29248;SDS011;16273;51.234;7.616;2023-03-03T17:45:40;41.05;;;15.82;;
29248;SDS011;16273;51.234;7.616;2023-03-03T17:51:35;41.22;;;15.07;;
29248;SDS011;16273;51.234;7.616;2023-03-03T17:57:32;39.90;;;14.68;;
29248;SDS011;16273;51.234;7.616;2023-03-03T18:29:20;55.25;;;24.95;;
29248;SDS011;16273;51.234;7.616;2023-03-03T18:32:16;53.33;;;21.42;;
29248;SDS011;16273;51.234;7.616;2023-03-03T18:41:04;49.03;;;19.33;;
29248;SDS011;16273;51.234;7.616;2023-03-03T18:43:54;48.67;;;18.55;;
29248;SDS011;16273;51.234;7.616;2023-03-03T18:46:44;46.55;;;20.23;;
29248;SDS011;16273;51.234;7.616;2023-03-03T18:52:32;50.80;;;20.40;;
29248;SDS011;16273;51.234;7.616;2023-03-03T19:01:00;45.10;;;17.10;;
29248;SDS011;16273;51.234;7.616;2023-03-03T19:10:06;46.47;;;18.42;;
29248;SDS011;16273;51.234;7.616;2023-03-03T19:12:44;46.75;;;18.58;;
29248;SDS011;16273;51.234;7.616;2023-03-03T19:18:23;48.30;;;18.40;;
29248;SDS011;16273;51.234;7.616;2023-03-03T19:26:54;47.80;;;17.80;;
29248;SDS011;16273;51.234;7.616;2023-03-03T19:44:06;46.92;;;18.50;;
29248;SDS011;16273;51.234;7.616;2023-03-03T19:46:56;45.75;;;19.60;;
29248;SDS011;16273;51.234;7.616;2023-03-03T19:49:55;48.47;;;18.52;;
29248;SDS011;16273;51.234;7.616;2023-03-03T19:52:51;49.90;;;20.98;;
29248;SDS011;16273;51.234;7.616;2023-03-03T20:18:42;43.63;;;19.35;;
29248;SDS011;16273;51.234;7.616;2023-03-03T20:21:32;42.13;;;19.50;;
29248;SDS011;16273;51.234;7.616;2023-03-03T20:41:30;41.78;;;21.20;;
29248;SDS011;16273;51.234;7.616;2023-03-03T20:47:13;47.83;;;22.35;;
29248;SDS011;16273;51.234;7.616;2023-03-03T20:55:58;46.28;;;22.63;;
29248;SDS011;16273;51.234;7.616;2023-03-03T20:58:58;44.25;;;21.67;;
29248;SDS011;16273;51.234;7.616;2023-03-03T21:04:40;52.80;;;21.98;;
29248;SDS011;16273;51.234;7.616;2023-03-03T21:07:26;40.42;;;21.52;;
29248;SDS011;16273;51.234;7.616;2023-03-03T21:10:13;40.60;;;19.77;;
29248;SDS011;16273;51.234;7.616;2023-03-03T21:19:08;40.05;;;20.00;;
29248;SDS011;16273;51.234;7.616;2023-03-03T21:21:55;42.97;;;19.48;;
29248;SDS011;16273;51.234;7.616;2023-03-03T21:24:46;50.47;;;23.95;;
29248;SDS011;16273;51.234;7.616;2023-03-03T21:27:32;46.05;;;21.63;;
29248;SDS011;16273;51.234;7.616;2023-03-03T21:30:18;44.58;;;20.48;;
29248;SDS011;16273;51.234;7.616;2023-03-03T21:33:03;45.35;;;20.33;;
29248;SDS011;16273;51.234;7.616;2023-03-03T21:35:58;44.83;;;21.92;;
29248;SDS011;16273;51.234;7.616;2023-03-03T21:38:44;40.00;;;20.80;;
29248;SDS011;16273;51.234;7.616;2023-03-03T21:41:48;46.67;;;20.98;;
29248;SDS011;16273;51.234;7.616;2023-03-03T21:44:44;39.47;;;19.27;;
29248;SDS011;16273;51.234;7.616;2023-03-03T21:47:33;42.03;;;19.70;;
29248;SDS011;16273;51.234;7.616;2023-03-03T21:50:19;37.10;;;18.42;;
29248;SDS011;16273;51.234;7.616;2023-03-03T21:53:05;35.25;;;18.67;;
29248;SDS011;16273;51.234;7.616;2023-03-03T21:55:51;41.30;;;20.73;;
29248;SDS011;16273;51.234;7.616;2023-03-03T21:58:37;36.65;;;19.27;;
29248;SDS011;16273;51.234;7.616;2023-03-03T22:01:23;44.53;;;23.38;;
29248;SDS011;16273;51.234;7.616;2023-03-03T22:04:08;44.70;;;23.58;;
29248;SDS011;16273;51.234;7.616;2023-03-03T22:06:54;46.08;;;23.90;;
29248;SDS011;16273;51.234;7.616;2023-03-03T22:09:40;36.95;;;18.27;;
29248;SDS011;16273;51.234;7.616;2023-03-03T22:12:26;39.00;;;19.88;;
29248;SDS011;16273;51.234;7.616;2023-03-03T22:15:11;41.25;;;21.60;;
29248;SDS011;16273;51.234;7.616;2023-03-03T22:17:57;44.25;;;22.15;;
29248;SDS011;16273;51.234;7.616;2023-03-03T22:20:44;38.88;;;19.38;;
29248;SDS011;16273;51.234;7.616;2023-03-03T22:23:30;36.53;;;19.77;;
29248;SDS011;16273;51.234;7.616;2023-03-03T22:26:16;43.20;;;22.38;;
29248;SDS011;16273;51.234;7.616;2023-03-03T22:29:01;42.03;;;21.20;;
29248;SDS011;16273;51.234;7.616;2023-03-03T22:31:48;39.53;;;20.38;;
29248;SDS011;16273;51.234;7.616;2023-03-03T22:34:33;40.13;;;21.33;;
29248;SDS011;16273;51.234;7.616;2023-03-03T22:37:19;35.40;;;19.45;;
29248;SDS011;16273;51.234;7.616;2023-03-03T22:40:04;37.35;;;19.75;;
29248;SDS011;16273;51.234;7.616;2023-03-03T22:42:50;35.58;;;18.25;;
29248;SDS011;16273;51.234;7.616;2023-03-03T22:45:36;31.63;;;17.15;;
29248;SDS011;16273;51.234;7.616;2023-03-03T22:48:22;29.58;;;17.17;;
29248;SDS011;16273;51.234;7.616;2023-03-03T22:51:08;23.50;;;14.52;;
29248;SDS011;16273;51.234;7.616;2023-03-03T22:53:54;24.05;;;14.18;;
29248;SDS011;16273;51.234;7.616;2023-03-03T22:56:39;23.75;;;14.45;;
29248;SDS011;16273;51.234;7.616;2023-03-03T22:59:25;27.80;;;15.02;;
29248;SDS011;16273;51.234;7.616;2023-03-03T23:02:11;24.17;;;13.40;;
29248;SDS011;16273;51.234;7.616;2023-03-03T23:04:56;21.15;;;12.73;;
29248;SDS011;16273;51.234;7.616;2023-03-03T23:07:45;21.92;;;13.25;;
29248;SDS011;16273;51.234;7.616;2023-03-03T23:10:31;21.88;;;13.27;;
29248;SDS011;16273;51.234;7.616;2023-03-03T23:13:17;20.00;;;12.57;;
29248;SDS011;16273;51.234;7.616;2023-03-03T23:16:03;20.00;;;12.40;;
29248;SDS011;16273;51.234;7.616;2023-03-03T23:18:49;20.15;;;12.98;;
29248;SDS011;16273;51.234;7.616;2023-03-03T23:21:34;24.80;;;12.00;;
29248;SDS011;16273;51.234;7.616;2023-03-03T23:24:20;17.85;;;11.73;;
29248;SDS011;16273;51.234;7.616;2023-03-03T23:27:06;17.17;;;9.57;;
29248;SDS011;16273;51.234;7.616;2023-03-03T23:29:51;13.13;;;9.00;;
29248;SDS011;16273;51.234;7.616;2023-03-03T23:32:39;15.07;;;9.05;;
29248;SDS011;16273;51.234;7.616;2023-03-03T23:35:24;15.43;;;8.90;;
29248;SDS011;16273;51.234;7.616;2023-03-03T23:38:10;14.60;;;9.60;;
29248;SDS011;16273;51.234;7.616;2023-03-03T23:40:59;13.00;;;9.00;;
29248;SDS011;16273;51.234;7.616;2023-03-03T23:43:45;15.75;;;9.30;;
29248;SDS011;16273;51.234;7.616;2023-03-03T23:46:30;17.80;;;10.25;;
29248;SDS011;16273;51.234;7.616;2023-03-03T23:49:16;17.92;;;10.88;;
29248;SDS011;16273;51.234;7.616;2023-03-03T23:52:02;17.20;;;10.77;;
29248;SDS011;16273;51.234;7.616;2023-03-03T23:54:48;16.67;;;10.13;;
29248;SDS011;16273;51.234;7.616;2023-03-03T23:57:34;14.75;;;9.57;;
